Time;durP1;ratioP1;P1;durP2;ratioP2;P2;SDS_P1;SDS_P2;PMS_P1;PMS_P2;Temp;Humidity;BMP_temperature;BMP_pressure;BME280_temperature;BME280_humidity;BME280_pressure;Samples;Min_cycle;Max_cycle;Signal;HPM_P1;HPM_P2
2022/07/06 00:00:06;;;;;;;;;;;28.70;92.90;;;;;;5122956;28;19911;-45
2022/07/06 00:02:32;;;;;;;;;;;28.70;93.20;;;;;;5125283;28;19926;-46
2022/07/06 00:04:59;;;;;;;;;;;28.60;93.00;;;;;;5124656;28;20134;-52
2022/07/06 00:07:25;;;;;;;;;;;28.60;93.00;;;;;;5105713;28;19908;-46
2022/07/06 00:09:51;;;;;;;;;;;28.60;92.80;;;;;;5116214;28;19930;-46
2022/07/06 00:12:17;;;;;;;;;;;28.60;92.90;;;;;;5124328;28;19975;-45
2022/07/06 00:14:43;;;;;;;;;;;28.60;92.90;;;;;;5124844;28;19942;-47
2022/07/06 00:17:09;;;;;;;;;;;28.50;93.00;;;;;;5127957;28;19908;-50
2022/07/06 00:19:35;;;;;;;;;;;28.50;93.20;;;;;;5129562;28;19912;-46
2022/07/06 00:22:03;;;;;;;;;;;28.40;93.20;;;;;;5121763;28;19908;-45
2022/07/06 00:24:29;;;;;;;;;;;28.40;93.30;;;;;;5128896;28;19911;-46
2022/07/06 00:26:55;;;;;;;;;;;28.40;93.50;;;;;;5127906;28;19970;-45
2022/07/06 00:29:21;;;;;;;;;;;28.40;93.60;;;;;;5128589;28;19943;-45
2022/07/06 00:31:47;;;;;;;;;;;28.40;93.60;;;;;;5109946;28;19911;-47
2022/07/06 00:34:14;;;;;;;;;;;28.30;93.70;;;;;;5119955;28;19947;-45
2022/07/06 00:36:40;;;;;;;;;;;28.30;93.90;;;;;;5087731;28;19916;-48
2022/07/06 00:39:07;;;;;;;;;;;28.20;94.10;;;;;;5088070;28;20189;-46
2022/07/06 00:41:33;;;;;;;;;;;28.10;94.20;;;;;;5101022;28;19911;-49
2022/07/06 00:43:59;;;;;;;;;;;28.10;94.10;;;;;;5108501;28;20100;-48
2022/07/06 00:46:27;;;;;;;;;;;28.10;94.20;;;;;;5108057;28;19904;-50
2022/07/06 00:48:53;;;;;;;;;;;28.00;94.30;;;;;;5108044;28;19987;-52
2022/07/06 00:51:20;;;;;;;;;;;28.00;94.40;;;;;;5108173;28;20193;-48
2022/07/06 00:53:47;;;;;;;;;;;28.00;94.50;;;;;;5089972;28;19912;-51
2022/07/06 00:56:14;;;;;;;;;;;28.00;94.60;;;;;;5090059;28;19916;-51
2022/07/06 00:58:40;;;;;;;;;;;28.00;94.70;;;;;;5090145;28;20157;-47
2022/07/06 01:01:06;;;;;;;;;;;28.00;94.70;;;;;;5107822;28;19911;-51
2022/07/06 01:03:33;;;;;;;;;;;28.00;94.70;;;;;;5107874;28;20176;-51
2022/07/06 01:05:59;;;;;;;;;;;28.00;94.70;;;;;;5094258;28;19915;-49
2022/07/06 01:08:25;;;;;;;;;;;28.00;94.80;;;;;;5092832;28;20030;-52
2022/07/06 01:10:52;;;;;;;;;;;27.90;94.80;;;;;;5095790;28;19905;-48
2022/07/06 01:13:18;;;;;;;;;;;27.90;94.90;;;;;;5094869;28;19913;-47
2022/07/06 01:15:48;;;;;;;;;;;27.90;95.00;;;;;;5087252;28;19909;-43
2022/07/06 01:18:16;;;;;;;;;;;27.90;94.90;;;;;;5087561;28;19912;-50
2022/07/06 01:20:47;;;;;;;;;;;27.90;94.80;;;;;;5081557;28;19913;-44
2022/07/06 01:23:15;;;;;;;;;;;27.90;94.70;;;;;;5075838;28;19913;-47
2022/07/06 01:25:44;;;;;;;;;;;27.90;94.90;;;;;;5079736;28;19994;-54
2022/07/06 01:28:11;;;;;;;;;;;27.80;94.70;;;;;;5108379;28;20096;-49
2022/07/06 01:30:38;;;;;;;;;;;27.80;94.80;;;;;;5089507;28;20188;-50
2022/07/06 01:33:04;;;;;;;;;;;27.70;94.50;;;;;;5090409;28;19938;-46
2022/07/06 01:35:32;;;;;;;;;;;27.70;94.60;;;;;;5127750;28;19954;-50
2022/07/06 01:38:01;;;;;;;;;;;27.70;94.40;;;;;;5127732;28;19911;-49
2022/07/06 01:40:28;;;;;;;;;;;27.70;94.40;;;;;;5106228;28;19927;-48
2022/07/06 01:42:58;;;;;;;;;;;27.70;94.20;;;;;;5118619;28;19911;-52
2022/07/06 01:45:41;;;;;;;;;;;27.80;94.20;;;;;;5085562;28;19994;-45
2022/07/06 01:48:09;;;;;;;;;;;27.70;94.50;;;;;;5085774;28;20236;-47
2022/07/06 01:50:36;;;;;;;;;;;27.70;94.40;;;;;;5078796;28;19936;-49
2022/07/06 01:53:05;;;;;;;;;;;27.70;94.40;;;;;;5048097;28;19919;-51
2022/07/06 01:55:31;;;;;;;;;;;27.70;94.30;;;;;;5064949;28;19916;-45
2022/07/06 01:57:58;;;;;;;;;;;27.70;94.40;;;;;;5048141;28;19964;-49
2022/07/06 02:00:24;;;;;;;;;;;27.80;94.60;;;;;;5064753;28;19904;-51
2022/07/06 02:02:54;;;;;;;;;;;27.70;94.50;;;;;;5073158;28;19913;-51
2022/07/06 02:05:20;;;;;;;;;;;27.70;94.60;;;;;;5062925;28;19913;-45
2022/07/06 02:07:47;;;;;;;;;;;27.70;94.50;;;;;;5084565;28;19923;-51
2022/07/06 02:10:16;;;;;;;;;;;27.80;94.60;;;;;;5082738;28;19908;-53
2022/07/06 02:12:59;;;;;;;;;;;27.80;94.60;;;;;;5064143;28;19935;-51
2022/07/06 02:15:28;;;;;;;;;;;27.80;94.60;;;;;;5064417;28;19916;-52
2022/07/06 02:17:54;;;;;;;;;;;27.80;94.60;;;;;;5067525;28;19912;-49
2022/07/06 02:20:23;;;;;;;;;;;27.80;94.50;;;;;;5084446;28;19916;-54
2022/07/06 02:22:49;;;;;;;;;;;27.80;94.50;;;;;;5084412;28;19913;-53
2022/07/06 02:25:15;;;;;;;;;;;27.90;94.50;;;;;;5084185;28;19911;-57
2022/07/06 02:27:43;;;;;;;;;;;27.90;94.60;;;;;;5084104;28;20205;-55
2022/07/06 02:30:10;;;;;;;;;;;27.90;94.60;;;;;;5084271;28;20156;-56
2022/07/06 02:32:36;;;;;;;;;;;27.90;94.50;;;;;;5083979;28;20133;-53
2022/07/06 02:35:02;;;;;;;;;;;27.90;94.70;;;;;;5083560;28;19920;-54
2022/07/06 02:37:29;;;;;;;;;;;27.90;94.40;;;;;;5084102;28;19932;-50
2022/07/06 02:39:55;;;;;;;;;;;27.90;94.40;;;;;;5083465;28;19912;-48
2022/07/06 02:42:21;;;;;;;;;;;27.90;94.50;;;;;;5083975;28;20220;-54
2022/07/06 02:44:48;;;;;;;;;;;27.90;94.40;;;;;;5102143;28;19907;-51
2022/07/06 02:47:14;;;;;;;;;;;27.90;94.30;;;;;;5121866;28;19912;-50
2022/07/06 02:49:41;;;;;;;;;;;27.90;94.20;;;;;;5125271;28;20209;-55
2022/07/06 02:52:07;;;;;;;;;;;27.90;94.20;;;;;;5126457;28;19910;-54
2022/07/06 02:54:33;;;;;;;;;;;27.90;94.10;;;;;;5108080;28;20218;-52
2022/07/06 02:56:59;;;;;;;;;;;27.80;94.00;;;;;;5126013;28;20050;-58
2022/07/06 02:59:27;;;;;;;;;;;27.80;94.10;;;;;;5106249;28;19915;-57
2022/07/06 03:01:53;;;;;;;;;;;27.80;94.10;;;;;;5106760;28;19908;-52
2022/07/06 03:04:19;;;;;;;;;;;27.80;94.20;;;;;;5124055;28;19943;-57
2022/07/06 03:06:45;;;;;;;;;;;27.80;94.10;;;;;;5117899;28;20029;-50
2022/07/06 03:09:14;;;;;;;;;;;27.80;94.10;;;;;;5117619;28;19967;-52
2022/07/06 03:11:40;;;;;;;;;;;27.80;94.20;;;;;;5096801;28;19916;-54
2022/07/06 03:14:06;;;;;;;;;;;27.80;94.10;;;;;;5113743;28;19978;-55
2022/07/06 03:16:33;;;;;;;;;;;27.80;94.00;;;;;;5116398;28;19938;-62
2022/07/06 03:18:59;;;;;;;;;;;27.80;94.00;;;;;;5121969;28;19915;-57
2022/07/06 03:21:25;;;;;;;;;;;27.80;94.00;;;;;;5123405;28;19911;-50
2022/07/06 03:23:51;;;;;;;;;;;27.80;93.90;;;;;;5118970;28;19939;-53
2022/07/06 03:26:17;;;;;;;;;;;27.80;94.00;;;;;;5119934;28;19907;-51
2022/07/06 03:28:43;;;;;;;;;;;27.80;94.00;;;;;;5106711;28;20146;-50
2022/07/06 03:31:09;;;;;;;;;;;27.80;93.90;;;;;;5125591;28;20153;-46
2022/07/06 03:33:36;;;;;;;;;;;27.80;93.90;;;;;;5123435;28;19928;-50
2022/07/06 03:36:02;;;;;;;;;;;27.80;93.90;;;;;;5119105;28;19908;-48
2022/07/06 03:38:28;;;;;;;;;;;27.70;93.80;;;;;;5125388;28;19912;-52
2022/07/06 03:40:54;;;;;;;;;;;27.70;93.80;;;;;;5118715;28;19908;-51
2022/07/06 03:43:20;;;;;;;;;;;27.70;93.70;;;;;;5117632;28;20188;-52
2022/07/06 03:45:46;;;;;;;;;;;27.70;93.70;;;;;;5119173;28;19945;-51
2022/07/06 03:48:12;;;;;;;;;;;27.70;93.70;;;;;;5118071;28;19912;-52
2022/07/06 03:50:38;;;;;;;;;;;27.70;93.70;;;;;;5124130;28;19904;-54
2022/07/06 03:53:05;;;;;;;;;;;27.70;93.80;;;;;;5117200;28;19916;-50
2022/07/06 03:55:31;;;;;;;;;;;27.70;93.80;;;;;;5104536;28;19947;-52
2022/07/06 03:57:57;;;;;;;;;;;27.70;93.80;;;;;;5104977;28;19912;-52
2022/07/06 04:00:23;;;;;;;;;;;27.60;93.80;;;;;;5104545;28;19904;-54
2022/07/06 04:02:49;;;;;;;;;;;27.60;93.80;;;;;;5105029;28;19961;-54
2022/07/06 04:05:17;;;;;;;;;;;27.70;93.90;;;;;;5121910;28;19908;-52
2022/07/06 04:07:43;;;;;;;;;;;27.60;93.90;;;;;;5124667;28;19934;-56
2022/07/06 04:10:09;;;;;;;;;;;27.60;93.90;;;;;;5124898;28;19904;-48
2022/07/06 04:12:45;;;;;;;;;;;27.60;93.80;;;;;;5124980;28;19916;-51
2022/07/06 04:15:11;;;;;;;;;;;27.60;93.80;;;;;;5124568;28;19911;-50
2022/07/06 04:17:53;;;;;;;;;;;27.60;93.90;;;;;;5124798;28;20247;-52
2022/07/06 04:20:20;;;;;;;;;;;27.60;93.80;;;;;;5124596;28;20130;-56
2022/07/06 04:22:47;;;;;;;;;;;27.60;93.80;;;;;;5124728;28;19912;-59
2022/07/06 04:25:13;;;;;;;;;;;27.50;93.90;;;;;;5124792;28;19944;-50
2022/07/06 04:27:39;;;;;;;;;;;27.50;93.90;;;;;;5124446;28;20190;-58
2022/07/06 04:30:05;;;;;;;;;;;27.50;93.90;;;;;;5124557;28;19910;-53
2022/07/06 04:32:32;;;;;;;;;;;27.50;93.90;;;;;;5124812;28;19924;-52
2022/07/06 04:34:58;;;;;;;;;;;27.50;94.00;;;;;;5124326;28;19923;-54
2022/07/06 04:37:24;;;;;;;;;;;27.50;94.00;;;;;;5124559;28;19903;-54
2022/07/06 04:39:50;;;;;;;;;;;27.50;94.00;;;;;;5124686;28;20214;-58
2022/07/06 04:42:16;;;;;;;;;;;27.50;94.00;;;;;;5124427;28;19966;-53
2022/07/06 04:44:43;;;;;;;;;;;27.50;93.90;;;;;;5124452;28;19932;-52
2022/07/06 04:47:09;;;;;;;;;;;27.50;93.90;;;;;;5124462;28;19904;-52
2022/07/06 04:49:35;;;;;;;;;;;27.50;93.90;;;;;;5124990;28;20200;-54
2022/07/06 04:52:01;;;;;;;;;;;27.50;93.90;;;;;;5124304;28;19904;-56
2022/07/06 04:54:27;;;;;;;;;;;27.40;93.90;;;;;;5124944;28;20123;-48
2022/07/06 04:56:53;;;;;;;;;;;27.40;94.00;;;;;;5124474;28;19915;-53
2022/07/06 04:59:19;;;;;;;;;;;27.40;94.00;;;;;;5124519;28;19912;-51
2022/07/06 05:01:46;;;;;;;;;;;27.40;94.00;;;;;;5125384;28;19910;-56
2022/07/06 05:04:12;;;;;;;;;;;27.40;94.00;;;;;;5129049;28;19912;-62
2022/07/06 05:06:38;;;;;;;;;;;27.40;94.00;;;;;;5128172;28;19907;-50
2022/07/06 05:09:04;;;;;;;;;;;27.40;93.90;;;;;;5128911;28;19912;-49
2022/07/06 05:11:30;;;;;;;;;;;27.40;93.80;;;;;;5128107;28;20104;-52
2022/07/06 05:13:56;;;;;;;;;;;27.30;93.80;;;;;;5128307;28;19919;-49
2022/07/06 05:16:22;;;;;;;;;;;27.40;93.80;;;;;;5128201;28;19973;-51
2022/07/06 05:18:48;;;;;;;;;;;27.40;93.80;;;;;;5128395;28;19919;-49
2022/07/06 05:21:14;;;;;;;;;;;27.40;93.70;;;;;;5127878;28;20077;-50
2022/07/06 05:23:41;;;;;;;;;;;27.40;93.70;;;;;;5128190;28;19978;-51
2022/07/06 05:26:07;;;;;;;;;;;27.40;93.80;;;;;;5128025;28;19904;-50
2022/07/06 05:28:33;;;;;;;;;;;27.30;93.60;;;;;;5128021;28;19912;-55
2022/07/06 05:30:59;;;;;;;;;;;27.30;93.70;;;;;;5127850;28;19935;-50
2022/07/06 05:33:27;;;;;;;;;;;27.30;93.60;;;;;;5127690;28;19998;-48
2022/07/06 05:35:53;;;;;;;;;;;27.30;93.70;;;;;;5127566;28;20247;-48
2022/07/06 05:38:19;;;;;;;;;;;27.30;93.60;;;;;;5127686;28;19912;-51
2022/07/06 05:40:46;;;;;;;;;;;27.30;93.60;;;;;;5127554;28;19903;-55
2022/07/06 05:43:12;;;;;;;;;;;27.30;93.40;;;;;;5127751;28;19948;-53
2022/07/06 05:45:38;;;;;;;;;;;27.30;93.50;;;;;;5127543;28;19910;-48
2022/07/06 05:50:49;;;;;;;;;;;27.30;93.40;;;;;;5127485;28;20103;-57
2022/07/06 05:53:15;;;;;;;;;;;27.30;93.40;;;;;;5127167;28;19947;-51
2022/07/06 05:55:41;;;;;;;;;;;27.30;93.40;;;;;;5127360;28;19953;-56
2022/07/06 05:58:07;;;;;;;;;;;27.30;93.40;;;;;;5127294;28;19916;-54
2022/07/06 06:00:33;;;;;;;;;;;27.30;93.50;;;;;;5108973;28;20093;-52
2022/07/06 06:03:00;;;;;;;;;;;27.30;93.50;;;;;;5127305;28;19978;-51
2022/07/06 06:05:26;;;;;;;;;;;27.30;93.50;;;;;;5127203;28;19904;-52
2022/07/06 06:07:52;;;;;;;;;;;27.20;93.50;;;;;;5126968;28;19920;-56
2022/07/06 06:10:19;;;;;;;;;;;27.20;93.60;;;;;;5126751;28;19904;-48
2022/07/06 06:12:46;;;;;;;;;;;27.20;93.60;;;;;;5126706;28;19961;-54
2022/07/06 06:15:12;;;;;;;;;;;27.20;93.70;;;;;;5126279;28;19910;-51
2022/07/06 06:17:38;;;;;;;;;;;27.20;93.70;;;;;;5127041;28;19923;-51
2022/07/06 06:20:06;;;;;;;;;;;27.20;93.70;;;;;;5126856;28;19979;-51
2022/07/06 06:22:43;;;;;;;;;;;27.20;93.70;;;;;;5126621;28;20197;-53
2022/07/06 06:25:10;;;;;;;;;;;27.20;93.80;;;;;;5126640;28;19907;-52
2022/07/06 06:27:36;;;;;;;;;;;27.20;93.80;;;;;;5126662;28;19912;-56
2022/07/06 06:30:02;;;;;;;;;;;27.20;93.90;;;;;;5126951;28;19986;-53
2022/07/06 06:32:28;;;;;;;;;;;27.20;93.90;;;;;;5126582;28;19904;-51
2022/07/06 06:34:55;;;;;;;;;;;27.20;93.90;;;;;;5126567;28;19923;-50
2022/07/06 06:37:21;;;;;;;;;;;27.20;93.90;;;;;;5126388;28;19919;-53
2022/07/06 06:39:47;;;;;;;;;;;27.20;93.90;;;;;;5126485;28;19914;-53
2022/07/06 06:42:13;;;;;;;;;;;27.20;93.90;;;;;;5126226;28;19911;-49
2022/07/06 06:44:40;;;;;;;;;;;27.10;93.90;;;;;;5126235;28;20256;-48
2022/07/06 06:47:06;;;;;;;;;;;27.10;93.90;;;;;;5126295;28;19949;-51
2022/07/06 06:49:32;;;;;;;;;;;27.10;93.90;;;;;;5126549;28;20184;-51
2022/07/06 06:51:58;;;;;;;;;;;27.10;93.90;;;;;;5126051;28;19904;-52
2022/07/06 06:54:24;;;;;;;;;;;27.10;93.90;;;;;;5126613;28;19908;-52
2022/07/06 06:56:50;;;;;;;;;;;27.10;94.00;;;;;;5125927;28;20171;-49
2022/07/06 06:59:16;;;;;;;;;;;27.10;94.00;;;;;;5126354;28;19908;-52
2022/07/06 07:01:42;;;;;;;;;;;27.10;93.90;;;;;;5125802;28;19907;-55
2022/07/06 07:04:09;;;;;;;;;;;27.10;94.00;;;;;;5126420;28;19908;-46
2022/07/06 07:06:35;;;;;;;;;;;27.10;94.00;;;;;;5125803;28;19983;-48
2022/07/06 07:09:01;;;;;;;;;;;27.10;94.00;;;;;;5126292;28;19971;-47
2022/07/06 07:11:27;;;;;;;;;;;27.00;94.10;;;;;;5125759;28;19912;-47
2022/07/06 07:13:53;;;;;;;;;;;27.00;94.00;;;;;;5126013;28;20084;-50
2022/07/06 07:16:20;;;;;;;;;;;27.00;93.90;;;;;;5125756;28;19919;-54
2022/07/06 07:18:46;;;;;;;;;;;27.00;93.80;;;;;;5125864;28;19965;-58
2022/07/06 07:21:12;;;;;;;;;;;27.00;93.90;;;;;;5125587;28;19907;-50
2022/07/06 07:23:38;;;;;;;;;;;27.00;93.80;;;;;;5125292;28;20223;-51
2022/07/06 07:26:04;;;;;;;;;;;27.00;93.90;;;;;;5125800;28;19915;-51
2022/07/06 07:28:31;;;;;;;;;;;26.90;93.80;;;;;;5125753;28;19907;-49
2022/07/06 07:30:57;;;;;;;;;;;26.90;93.70;;;;;;5125449;28;19908;-53
2022/07/06 07:33:23;;;;;;;;;;;26.90;93.70;;;;;;5125411;28;19922;-57
2022/07/06 07:35:49;;;;;;;;;;;26.90;93.60;;;;;;5125401;28;20274;-55
2022/07/06 07:38:15;;;;;;;;;;;26.90;93.50;;;;;;5125486;28;19944;-49
2022/07/06 07:40:41;;;;;;;;;;;26.90;93.50;;;;;;5125601;28;19904;-55
2022/07/06 07:43:07;;;;;;;;;;;26.90;93.50;;;;;;5125470;28;19919;-50
2022/07/06 07:45:34;;;;;;;;;;;26.90;93.50;;;;;;5125395;28;20195;-55
2022/07/06 07:48:00;;;;;;;;;;;26.90;93.30;;;;;;5125364;28;20176;-46
2022/07/06 07:50:26;;;;;;;;;;;26.90;93.20;;;;;;5125073;28;19935;-48
2022/07/06 07:52:53;;;;;;;;;;;26.90;93.20;;;;;;5125052;28;19912;-51
2022/07/06 07:55:19;;;;;;;;;;;26.90;93.20;;;;;;5124865;28;19915;-49
2022/07/06 07:57:45;;;;;;;;;;;26.90;93.10;;;;;;5125201;28;19911;-55
2022/07/06 08:00:11;;;;;;;;;;;26.80;93.20;;;;;;5124987;28;19941;-55
2022/07/06 08:02:38;;;;;;;;;;;26.80;93.10;;;;;;5125161;28;19920;-56
2022/07/06 08:05:04;;;;;;;;;;;26.90;93.10;;;;;;5125010;28;19904;-56
2022/07/06 08:07:30;;;;;;;;;;;26.90;93.20;;;;;;5124669;28;19910;-52
2022/07/06 08:09:56;;;;;;;;;;;26.80;93.30;;;;;;5125087;28;19908;-53
2022/07/06 08:12:22;;;;;;;;;;;26.80;93.30;;;;;;5124659;28;19974;-53
2022/07/06 08:14:49;;;;;;;;;;;26.90;93.30;;;;;;5125006;28;20214;-53
2022/07/06 08:17:15;;;;;;;;;;;26.90;93.30;;;;;;5124446;28;19915;-53
2022/07/06 08:19:41;;;;;;;;;;;26.90;93.30;;;;;;5124796;28;19935;-53
2022/07/06 08:22:08;;;;;;;;;;;26.90;93.40;;;;;;5125005;28;19904;-53
2022/07/06 08:24:34;;;;;;;;;;;26.90;93.40;;;;;;5125077;28;19911;-50
2022/07/06 08:27:00;;;;;;;;;;;26.90;93.40;;;;;;5124734;28;20238;-54
2022/07/06 08:29:26;;;;;;;;;;;26.90;93.40;;;;;;5125385;28;19912;-56
2022/07/06 08:31:53;;;;;;;;;;;26.90;93.50;;;;;;5124618;28;19943;-55
2022/07/06 08:34:19;;;;;;;;;;;26.90;93.60;;;;;;5124691;28;20149;-50
2022/07/06 08:36:45;;;;;;;;;;;26.80;93.60;;;;;;5125660;28;19914;-52
2022/07/06 08:39:11;;;;;;;;;;;26.80;93.60;;;;;;5128976;28;19912;-49
2022/07/06 08:41:38;;;;;;;;;;;26.80;93.60;;;;;;5129315;28;19978;-50
2022/07/06 08:44:06;;;;;;;;;;;26.80;93.90;;;;;;5129305;28;19974;-55
2022/07/06 08:46:32;;;;;;;;;;;26.80;93.70;;;;;;5128693;28;19903;-48
2022/07/06 08:49:00;;;;;;;;;;;26.70;93.70;;;;;;5128982;28;19912;-54
2022/07/06 08:51:27;;;;;;;;;;;26.80;93.70;;;;;;5128479;28;19904;-48
2022/07/06 08:53:54;;;;;;;;;;;26.80;93.80;;;;;;5128667;28;20125;-53
2022/07/06 08:56:21;;;;;;;;;;;26.80;93.70;;;;;;5128279;28;20085;-53
2022/07/06 08:58:47;;;;;;;;;;;26.80;93.70;;;;;;5128608;28;19912;-53
2022/07/06 09:01:13;;;;;;;;;;;26.70;93.70;;;;;;5128097;28;20223;-50
2022/07/06 09:03:43;;;;;;;;;;;26.70;93.70;;;;;;5128332;28;20233;-52
2022/07/06 09:06:10;;;;;;;;;;;26.70;93.70;;;;;;5128228;28;19912;-52
2022/07/06 09:08:36;;;;;;;;;;;26.70;93.70;;;;;;5127902;28;20134;-49
2022/07/06 09:11:03;;;;;;;;;;;26.70;93.70;;;;;;5128195;28;19912;-50
2022/07/06 09:13:29;;;;;;;;;;;26.70;93.70;;;;;;5128359;28;19979;-50
2022/07/06 09:15:56;;;;;;;;;;;26.70;93.70;;;;;;5128049;28;19977;-51
2022/07/06 09:18:22;;;;;;;;;;;26.60;93.70;;;;;;5128071;28;19957;-53
2022/07/06 09:20:48;;;;;;;;;;;26.70;93.70;;;;;;5127963;28;19903;-51
2022/07/06 09:23:15;;;;;;;;;;;26.60;93.70;;;;;;5128063;28;20192;-49
2022/07/06 09:25:42;;;;;;;;;;;26.60;93.60;;;;;;5127750;28;20219;-57
2022/07/06 09:28:08;;;;;;;;;;;26.60;93.60;;;;;;5127965;28;19957;-58
2022/07/06 09:30:39;;;;;;;;;;;26.60;93.60;;;;;;5128091;28;19904;-50
2022/07/06 09:33:08;;;;;;;;;;;26.60;93.70;;;;;;5127834;28;19912;-55
2022/07/06 09:35:39;;;;;;;;;;;26.60;93.60;;;;;;5127637;28;20200;-51
2022/07/06 09:38:12;;;;;;;;;;;26.60;93.60;;;;;;5127748;28;20091;-52
2022/07/06 09:40:42;;;;;;;;;;;26.60;93.60;;;;;;5127532;28;19904;-57
2022/07/06 09:43:13;;;;;;;;;;;26.60;93.70;;;;;;5127557;28;19918;-49
2022/07/06 09:45:40;;;;;;;;;;;26.60;93.70;;;;;;5127339;28;19911;-52
2022/07/06 09:48:10;;;;;;;;;;;26.60;93.60;;;;;;5126337;28;19912;-52
2022/07/06 09:50:43;;;;;;;;;;;26.60;93.60;;;;;;5127420;28;19904;-52
2022/07/06 09:53:10;;;;;;;;;;;26.60;93.60;;;;;;5127433;28;19912;-52
2022/07/06 09:55:36;;;;;;;;;;;26.60;93.60;;;;;;5127198;28;19947;-52
2022/07/06 09:58:03;;;;;;;;;;;26.60;93.60;;;;;;5127456;28;19912;-48
2022/07/06 10:00:29;;;;;;;;;;;26.60;93.70;;;;;;5127322;28;19976;-48
2022/07/06 10:02:55;;;;;;;;;;;26.60;93.70;;;;;;5127368;28;19912;-49
2022/07/06 10:05:29;;;;;;;;;;;26.60;93.70;;;;;;5127097;28;19949;-49
2022/07/06 10:08:00;;;;;;;;;;;26.50;93.80;;;;;;5127220;28;19912;-52
2022/07/06 10:10:28;;;;;;;;;;;26.50;93.80;;;;;;5126943;28;19908;-52
2022/07/06 10:12:55;;;;;;;;;;;26.50;93.70;;;;;;5127217;28;20096;-54
2022/07/06 10:15:23;;;;;;;;;;;26.50;93.70;;;;;;5127030;28;19944;-54
2022/07/06 10:17:50;;;;;;;;;;;26.50;93.80;;;;;;5126916;28;20199;-53
2022/07/06 10:20:16;;;;;;;;;;;26.50;93.90;;;;;;5126600;28;19939;-57
2022/07/06 10:22:42;;;;;;;;;;;26.50;93.90;;;;;;5126741;28;19911;-56
2022/07/06 10:25:08;;;;;;;;;;;26.50;94.00;;;;;;5125571;28;20108;-54
2022/07/06 10:27:35;;;;;;;;;;;26.50;94.00;;;;;;5125313;28;19912;-46
2022/07/06 10:30:01;;;;;;;;;;;26.50;94.10;;;;;;5126695;28;19904;-55
2022/07/06 10:32:28;;;;;;;;;;;26.50;94.10;;;;;;5126575;28;19944;-50
2022/07/06 10:34:54;;;;;;;;;;;26.50;94.20;;;;;;5126241;28;19916;-49
2022/07/06 10:37:27;;;;;;;;;;;26.50;94.30;;;;;;5126272;28;19919;-51
2022/07/06 10:42:41;;;;;;;;;;;26.50;94.40;;;;;;5126601;28;19934;-59
2022/07/06 10:45:08;;;;;;;;;;;26.40;94.30;;;;;;5126376;28;19911;-54
2022/07/06 10:47:35;;;;;;;;;;;26.50;94.40;;;;;;5126195;28;20127;-54
2022/07/06 10:50:02;;;;;;;;;;;26.50;94.40;;;;;;5126229;28;19904;-54
2022/07/06 10:53:03;;;;;;;;;;;26.50;94.40;;;;;;5126070;28;20018;-56
2022/07/06 10:55:35;;;;;;;;;;;26.50;94.50;;;;;;5023776;28;19916;-54
2022/07/06 10:58:01;;;;;;;;;;;26.50;94.50;;;;;;5108856;28;19912;-54
2022/07/06 11:00:42;;;;;;;;;;;26.50;94.50;;;;;;5125510;28;19903;-49
2022/07/06 11:03:27;;;;;;;;;;;26.50;94.50;;;;;;5126192;28;19919;-52
2022/07/06 11:05:58;;;;;;;;;;;26.50;94.50;;;;;;5125978;28;19904;-48
2022/07/06 11:08:41;;;;;;;;;;;26.50;94.50;;;;;;5125812;28;19919;-55
2022/07/06 11:11:11;;;;;;;;;;;26.50;94.50;;;;;;5125963;28;20077;-49
2022/07/06 11:13:57;;;;;;;;;;;26.50;94.40;;;;;;5125970;28;19911;-51
2022/07/06 11:16:26;;;;;;;;;;;26.50;94.30;;;;;;5125058;28;19912;-50
2022/07/06 11:19:10;;;;;;;;;;;26.60;94.30;;;;;;5125986;28;19912;-56
2022/07/06 11:21:41;;;;;;;;;;;26.60;94.20;;;;;;5125797;28;19970;-52
2022/07/06 11:24:08;;;;;;;;;;;26.60;94.20;;;;;;5125950;28;19911;-57
2022/07/06 11:26:36;;;;;;;;;;;26.60;94.20;;;;;;5125433;28;20192;-51
2022/07/06 11:29:06;;;;;;;;;;;26.60;94.20;;;;;;5125822;28;19943;-57
2022/07/06 11:31:39;;;;;;;;;;;26.60;94.20;;;;;;5125234;28;19912;-49
2022/07/06 11:34:06;;;;;;;;;;;26.60;94.20;;;;;;5125424;28;19919;-51
2022/07/06 11:36:32;;;;;;;;;;;26.60;94.30;;;;;;5124947;28;19968;-51
2022/07/06 11:39:01;;;;;;;;;;;26.60;94.30;;;;;;5124495;28;20201;-52
2022/07/06 11:41:27;;;;;;;;;;;26.70;94.40;;;;;;5125071;28;19943;-50
2022/07/06 11:43:54;;;;;;;;;;;26.70;94.40;;;;;;5125525;28;19973;-48
2022/07/06 11:46:30;;;;;;;;;;;26.80;94.50;;;;;;5125249;28;19904;-54
2022/07/06 11:48:57;;;;;;;;;;;26.80;94.40;;;;;;5125374;28;19924;-50
2022/07/06 11:51:25;;;;;;;;;;;26.70;94.40;;;;;;5125013;28;19945;-51
2022/07/06 11:53:52;;;;;;;;;;;26.80;94.30;;;;;;5125254;28;20025;-53
2022/07/06 11:56:21;;;;;;;;;;;26.70;94.40;;;;;;5124863;28;19943;-52
2022/07/06 11:58:49;;;;;;;;;;;26.70;94.40;;;;;;5107188;28;19957;-47
2022/07/06 12:01:15;;;;;;;;;;;26.80;94.70;;;;;;5124925;28;19931;-52
2022/07/06 12:03:42;;;;;;;;;;;26.80;94.40;;;;;;5125100;28;19912;-52
2022/07/06 12:06:21;;;;;;;;;;;26.80;94.30;;;;;;5125153;28;19910;-52
2022/07/06 12:08:49;;;;;;;;;;;26.80;94.40;;;;;;5125038;28;19916;-57
2022/07/06 12:11:23;;;;;;;;;;;26.80;94.40;;;;;;5124022;28;19926;-56
2022/07/06 12:13:50;;;;;;;;;;;26.80;94.30;;;;;;5125174;28;19919;-57
2022/07/06 12:16:16;;;;;;;;;;;26.80;94.40;;;;;;5124924;28;19920;-54
2022/07/06 12:18:43;;;;;;;;;;;26.80;94.30;;;;;;5125392;28;19934;-56
2022/07/06 12:21:14;;;;;;;;;;;26.80;94.30;;;;;;5124647;28;19911;-55
2022/07/06 12:23:45;;;;;;;;;;;26.90;94.40;;;;;;5124561;28;19919;-56
2022/07/06 12:26:13;;;;;;;;;;;26.80;94.40;;;;;;5124694;28;19904;-52
2022/07/06 12:28:39;;;;;;;;;;;26.90;94.40;;;;;;5124850;28;19912;-47
2022/07/06 12:31:05;;;;;;;;;;;26.90;94.40;;;;;;5124581;28;19904;-56
2022/07/06 12:33:32;;;;;;;;;;;26.90;94.40;;;;;;5122908;28;20193;-48
2022/07/06 12:36:09;;;;;;;;;;;26.90;94.50;;;;;;5124566;28;20200;-48
2022/07/06 12:38:35;;;;;;;;;;;26.90;94.40;;;;;;5121805;28;19912;-51
2022/07/06 12:41:02;;;;;;;;;;;26.90;94.30;;;;;;5124741;28;19903;-54
2022/07/06 12:43:35;;;;;;;;;;;26.90;94.30;;;;;;5124635;28;19972;-55
2022/07/06 12:46:20;;;;;;;;;;;27.00;94.30;;;;;;5124513;28;19904;-52
2022/07/06 12:48:53;;;;;;;;;;;27.10;94.20;;;;;;5124880;28;19911;-52
2022/07/06 12:51:20;;;;;;;;;;;27.10;94.00;;;;;;5124560;28;20041;-54
2022/07/06 12:53:46;;;;;;;;;;;27.20;94.00;;;;;;5124781;28;19953;-49
2022/07/06 12:56:12;;;;;;;;;;;27.20;93.90;;;;;;5124310;28;20159;-51
2022/07/06 12:58:39;;;;;;;;;;;27.30;93.60;;;;;;5124537;28;19946;-56
2022/07/06 13:01:05;;;;;;;;;;;27.30;93.50;;;;;;5124291;28;19946;-51
2022/07/06 13:03:40;;;;;;;;;;;27.40;93.50;;;;;;5124305;28;19919;-50
2022/07/06 13:06:06;;;;;;;;;;;27.40;93.50;;;;;;5124388;28;19970;-54
2022/07/06 13:08:33;;;;;;;;;;;27.50;93.50;;;;;;5123932;28;19916;-53
2022/07/06 13:10:59;;;;;;;;;;;27.50;93.50;;;;;;5124289;28;19912;-49
2022/07/06 13:13:25;;;;;;;;;;;27.60;93.40;;;;;;5124406;28;19919;-56
2022/07/06 13:15:52;;;;;;;;;;;27.60;93.40;;;;;;5124072;28;19908;-57
2022/07/06 13:18:19;;;;;;;;;;;27.70;93.20;;;;;;5124125;28;19950;-49
2022/07/06 13:20:45;;;;;;;;;;;27.70;93.30;;;;;;5124291;28;19911;-52
2022/07/06 13:23:11;;;;;;;;;;;27.70;93.20;;;;;;5125822;28;20092;-51
2022/07/06 13:25:37;;;;;;;;;;;27.70;93.10;;;;;;5127606;28;20215;-54
2022/07/06 13:28:03;;;;;;;;;;;27.80;93.00;;;;;;5127979;28;19911;-59
2022/07/06 13:30:29;;;;;;;;;;;27.70;93.00;;;;;;5127790;28;19911;-53
2022/07/06 13:32:56;;;;;;;;;;;27.70;93.10;;;;;;5127671;28;19953;-49
2022/07/06 13:35:23;;;;;;;;;;;27.70;93.00;;;;;;5127204;28;19930;-50
2022/07/06 13:37:50;;;;;;;;;;;27.70;93.10;;;;;;5127663;28;20088;-55
2022/07/06 13:40:16;;;;;;;;;;;27.70;93.10;;;;;;5127235;28;19903;-46
2022/07/06 13:42:42;;;;;;;;;;;27.80;93.20;;;;;;5127849;28;19911;-51
2022/07/06 13:45:09;;;;;;;;;;;27.80;93.20;;;;;;5127342;28;19904;-53
2022/07/06 13:47:35;;;;;;;;;;;27.80;93.20;;;;;;5127382;28;19966;-53
2022/07/06 13:50:01;;;;;;;;;;;27.80;92.50;;;;;;5127374;28;19967;-52
2022/07/06 13:52:27;;;;;;;;;;;27.80;92.70;;;;;;5127232;28;19904;-54
2022/07/06 13:54:53;;;;;;;;;;;27.80;92.90;;;;;;5127259;28;19903;-47
2022/07/06 13:57:19;;;;;;;;;;;27.80;92.90;;;;;;5127207;28;20192;-55
2022/07/06 13:59:46;;;;;;;;;;;27.80;92.90;;;;;;5127438;28;19904;-52
2022/07/06 14:02:12;;;;;;;;;;;27.80;93.00;;;;;;5126976;28;19927;-52
2022/07/06 14:04:38;;;;;;;;;;;27.80;92.80;;;;;;5127002;28;19935;-51
2022/07/06 14:07:05;;;;;;;;;;;27.90;92.80;;;;;;5126913;28;19904;-49
2022/07/06 14:09:31;;;;;;;;;;;27.90;92.90;;;;;;5126766;28;19912;-56
2022/07/06 14:11:57;;;;;;;;;;;27.90;92.90;;;;;;5126710;28;19903;-52
2022/07/06 14:14:23;;;;;;;;;;;27.90;92.90;;;;;;5127287;28;20092;-55
2022/07/06 14:16:50;;;;;;;;;;;28.00;93.00;;;;;;5126545;28;19986;-49
2022/07/06 14:19:17;;;;;;;;;;;28.00;92.80;;;;;;5126514;28;19947;-50
2022/07/06 14:21:44;;;;;;;;;;;28.00;92.70;;;;;;5120385;28;20095;-50